sensor_id;sensor_type;location;lat;lon;timestamp;pressure;altitude;pressure_sealevel;temperature;humidity
79671;BME280;69137;50.878;8.050;2023-05-16T00:00:02;98165.97;;;10.70;87.98
79671;BME280;69137;50.878;8.050;2023-05-16T00:02:31;98166.78;;;10.66;88.64
79671;BME280;69137;50.878;8.050;2023-05-16T00:04:56;98163.53;;;10.69;88.79
79671;BME280;69137;50.878;8.050;2023-05-16T00:07:22;98168.44;;;10.72;89.05
79671;BME280;69137;50.878;8.050;2023-05-16T00:09:48;98161.31;;;10.76;88.35
79671;BME280;69137;50.878;8.050;2023-05-16T00:12:13;98170.06;;;10.68;88.84
79671;BME280;69137;50.878;8.050;2023-05-16T00:14:39;98161.59;;;10.69;89.36
79671;BME280;69137;50.878;8.050;2023-05-16T00:17:04;98161.88;;;10.68;89.04
79671;BME280;69137;50.878;8.050;2023-05-16T00:19:36;98168.69;;;10.70;88.49
79671;BME280;69137;50.878;8.050;2023-05-16T00:22:04;98162.41;;;10.65;88.99
79671;BME280;69137;50.878;8.050;2023-05-16T00:24:29;98157.78;;;10.65;89.39
79671;BME280;69137;50.878;8.050;2023-05-16T00:26:55;98164.59;;;10.68;89.46
79671;BME280;69137;50.878;8.050;2023-05-16T00:29:20;98158.06;;;10.64;89.46
79671;BME280;69137;50.878;8.050;2023-05-16T00:31:48;98163.53;;;10.59;89.49
79671;BME280;69137;50.878;8.050;2023-05-16T00:34:14;98166.25;;;10.64;89.54
79671;BME280;69137;50.878;8.050;2023-05-16T00:36:39;98157.75;;;10.60;89.65
79671;BME280;69137;50.878;8.050;2023-05-16T00:39:04;98164.59;;;10.63;89.54
79671;BME280;69137;50.878;8.050;2023-05-16T00:41:30;98165.41;;;10.58;90.47
79671;BME280;69137;50.878;8.050;2023-05-16T00:43:56;98163.53;;;10.64;90.20
79671;BME280;69137;50.878;8.050;2023-05-16T00:46:21;98159.69;;;10.55;89.78
79671;BME280;69137;50.878;8.050;2023-05-16T00:48:47;98160.25;;;10.67;89.82
79671;BME280;69137;50.878;8.050;2023-05-16T00:51:12;98160.25;;;10.72;89.64
79671;BME280;69137;50.878;8.050;2023-05-16T00:53:38;98157.22;;;10.68;89.62
79671;BME280;69137;50.878;8.050;2023-05-16T00:56:04;98161.88;;;10.68;89.68
79671;BME280;69137;50.878;8.050;2023-05-16T00:58:31;98159.44;;;10.71;89.52
79671;BME280;69137;50.878;8.050;2023-05-16T01:00:59;98153.13;;;10.61;90.10
79671;BME280;69137;50.878;8.050;2023-05-16T01:03:26;98155.34;;;10.69;89.76
79671;BME280;69137;50.878;8.050;2023-05-16T01:05:51;98154.78;;;10.62;89.76
79671;BME280;69137;50.878;8.050;2023-05-16T01:08:17;98155.84;;;10.71;89.23
79671;BME280;69137;50.878;8.050;2023-05-16T01:10:52;98150.38;;;10.66;89.65
79671;BME280;69137;50.878;8.050;2023-05-16T01:25:21;98158.59;;;10.40;89.53
79671;BME280;69137;50.878;8.050;2023-05-16T01:27:50;98157.19;;;10.33;89.91
79671;BME280;69137;50.878;8.050;2023-05-16T01:30:18;98159.94;;;10.38;89.50
79671;BME280;69137;50.878;8.050;2023-05-16T01:32:44;98155.84;;;10.35;89.44
79671;BME280;69137;50.878;8.050;2023-05-16T01:35:12;98162.38;;;10.34;89.25
79671;BME280;69137;50.878;8.050;2023-05-16T01:40:40;98167.56;;;10.31;89.70
79671;BME280;69137;50.878;8.050;2023-05-16T01:43:13;98164.22;;;10.23;89.52
79671;BME280;69137;50.878;8.050;2023-05-16T01:45:46;98160.94;;;10.21;89.35
79671;BME280;69137;50.878;8.050;2023-05-16T01:48:22;98154.41;;;10.17;89.85
79671;BME280;69137;50.878;8.050;2023-05-16T01:50:54;98158.75;;;10.18;89.92
79671;BME280;69137;50.878;8.050;2023-05-16T01:53:29;98157.16;;;10.22;90.39
79671;BME280;69137;50.878;8.050;2023-05-16T01:56:00;98158.75;;;10.13;89.55
79671;BME280;69137;50.878;8.050;2023-05-16T01:58:26;98157.66;;;10.19;89.42
79671;BME280;69137;50.878;8.050;2023-05-16T02:00:53;98159.91;;;10.27;89.76
79671;BME280;69137;50.878;8.050;2023-05-16T02:03:18;98167.53;;;10.25;89.61
79671;BME280;69137;50.878;8.050;2023-05-16T02:05:44;98168.31;;;10.21;89.41
79671;BME280;69137;50.878;8.050;2023-05-16T02:08:10;98172.16;;;10.25;89.61
79671;BME280;69137;50.878;8.050;2023-05-16T02:10:35;98170.47;;;10.09;88.98
79671;BME280;69137;50.878;8.050;2023-05-16T02:13:00;98176.19;;;10.02;89.37
79671;BME280;69137;50.878;8.050;2023-05-16T02:15:28;98186.28;;;9.96;90.04
79671;BME280;69137;50.878;8.050;2023-05-16T02:17:54;98184.59;;;9.90;88.81
79671;BME280;69137;50.878;8.050;2023-05-16T02:20:19;98189.44;;;9.73;87.62
79671;BME280;69137;50.878;8.050;2023-05-16T02:22:45;98183.44;;;9.71;88.00
79671;BME280;69137;50.878;8.050;2023-05-16T02:25:13;98189.69;;;9.71;88.02
79671;BME280;69137;50.878;8.050;2023-05-16T02:27:39;98189.97;;;9.75;88.02
79671;BME280;69137;50.878;8.050;2023-05-16T02:30:04;98188.28;;;9.63;87.62
79671;BME280;69137;50.878;8.050;2023-05-16T02:32:31;98194.84;;;9.62;86.89
79671;BME280;69137;50.878;8.050;2023-05-16T02:34:56;98198.91;;;9.55;86.24
79671;BME280;69137;50.878;8.050;2023-05-16T02:37:22;98188.50;;;9.52;85.40
79671;BME280;69137;50.878;8.050;2023-05-16T02:39:47;98200.72;;;9.44;84.51
79671;BME280;69137;50.878;8.050;2023-05-16T02:42:13;98194.16;;;9.40;85.00
79671;BME280;69137;50.878;8.050;2023-05-16T02:44:38;98200.38;;;9.30;86.85
79671;BME280;69137;50.878;8.050;2023-05-16T02:47:04;98200.06;;;9.27;86.75
79671;BME280;69137;50.878;8.050;2023-05-16T02:49:29;98203.06;;;9.25;86.82
79671;BME280;69137;50.878;8.050;2023-05-16T02:51:55;98212.66;;;9.33;86.50
79671;BME280;69137;50.878;8.050;2023-05-16T02:54:20;98214.78;;;9.26;85.55
79671;BME280;69137;50.878;8.050;2023-05-16T02:56:46;98218.81;;;9.18;86.10
79671;BME280;69137;50.878;8.050;2023-05-16T02:59:11;98220.44;;;9.14;87.21
79671;BME280;69137;50.878;8.050;2023-05-16T03:01:38;98219.56;;;9.08;85.32
79671;BME280;69137;50.878;8.050;2023-05-16T03:04:04;98223.34;;;9.07;87.07
79671;BME280;69137;50.878;8.050;2023-05-16T03:06:30;98225.38;;;9.22;86.46
79671;BME280;69137;50.878;8.050;2023-05-16T03:08:56;98223.88;;;9.04;86.10
79671;BME280;69137;50.878;8.050;2023-05-16T03:11:21;98231.56;;;9.12;85.92
79671;BME280;69137;50.878;8.050;2023-05-16T03:13:49;98222.97;;;8.93;87.90
79671;BME280;69137;50.878;8.050;2023-05-16T03:16:14;98227.69;;;9.03;86.98
79671;BME280;69137;50.878;8.050;2023-05-16T03:18:41;98229.34;;;9.04;87.42
79671;BME280;69137;50.878;8.050;2023-05-16T03:21:06;98238.69;;;9.13;87.10
79671;BME280;69137;50.878;8.050;2023-05-16T03:23:32;98234.25;;;9.07;88.48
79671;BME280;69137;50.878;8.050;2023-05-16T03:25:57;98234.00;;;9.09;86.64
79671;BME280;69137;50.878;8.050;2023-05-16T03:28:23;98232.63;;;9.06;87.13
79671;BME280;69137;50.878;8.050;2023-05-16T03:30:48;98232.59;;;9.01;87.05
79671;BME280;69137;50.878;8.050;2023-05-16T03:33:14;98230.09;;;9.00;87.07
79671;BME280;69137;50.878;8.050;2023-05-16T03:35:40;98241.94;;;9.15;85.88
79671;BME280;69137;50.878;8.050;2023-05-16T03:38:06;98239.47;;;9.09;86.99
79671;BME280;69137;50.878;8.050;2023-05-16T03:40:31;98237.63;;;9.19;85.96
79671;BME280;69137;50.878;8.050;2023-05-16T03:42:57;98235.59;;;9.05;87.21
79671;BME280;69137;50.878;8.050;2023-05-16T03:45:25;98241.81;;;9.00;87.62
79671;BME280;69137;50.878;8.050;2023-05-16T03:47:50;98241.91;;;9.10;87.13
79671;BME280;69137;50.878;8.050;2023-05-16T03:50:16;98243.53;;;9.06;85.80
79671;BME280;69137;50.878;8.050;2023-05-16T03:52:41;98248.94;;;9.01;86.62
79671;BME280;69137;50.878;8.050;2023-05-16T03:55:07;98252.72;;;8.95;87.39
79671;BME280;69137;50.878;8.050;2023-05-16T03:57:33;98250.22;;;8.93;88.24
79671;BME280;69137;50.878;8.050;2023-05-16T03:59:59;98263.84;;;8.93;88.05
79671;BME280;69137;50.878;8.050;2023-05-16T04:02:24;98267.72;;;8.98;88.18
79671;BME280;69137;50.878;8.050;2023-05-16T04:04:50;98268.25;;;9.00;88.58
79671;BME280;69137;50.878;8.050;2023-05-16T04:07:15;98272.16;;;9.09;88.75
79671;BME280;69137;50.878;8.050;2023-05-16T04:09:41;98277.63;;;9.09;88.68
79671;BME280;69137;50.878;8.050;2023-05-16T04:12:07;98275.66;;;9.04;89.04
79671;BME280;69137;50.878;8.050;2023-05-16T04:14:33;98290.28;;;8.93;88.11
79671;BME280;69137;50.878;8.050;2023-05-16T04:16:59;98292.47;;;8.96;88.00
79671;BME280;69137;50.878;8.050;2023-05-16T04:19:25;98291.28;;;8.87;88.11
79671;BME280;69137;50.878;8.050;2023-05-16T04:21:51;98294.88;;;8.87;89.04
79671;BME280;69137;50.878;8.050;2023-05-16T04:24:16;98289.56;;;8.75;89.62
79671;BME280;69137;50.878;8.050;2023-05-16T04:26:42;98309.44;;;8.76;88.99
79671;BME280;69137;50.878;8.050;2023-05-16T04:29:07;98311.75;;;8.62;88.89
79671;BME280;69137;50.878;8.050;2023-05-16T04:31:33;98309.22;;;8.56;88.17
79671;BME280;69137;50.878;8.050;2023-05-16T04:33:58;98318.22;;;8.56;88.72
79671;BME280;69137;50.878;8.050;2023-05-16T04:36:24;98310.69;;;8.41;89.73
79671;BME280;69137;50.878;8.050;2023-05-16T04:38:50;98318.41;;;8.49;89.61
79671;BME280;69137;50.878;8.050;2023-05-16T04:41:16;98312.59;;;8.41;88.75
79671;BME280;69137;50.878;8.050;2023-05-16T04:43:43;98319.22;;;8.50;87.52
79671;BME280;69137;50.878;8.050;2023-05-16T04:46:08;98325.75;;;8.49;89.31
79671;BME280;69137;50.878;8.050;2023-05-16T04:48:34;98332.59;;;8.51;88.33
79671;BME280;69137;50.878;8.050;2023-05-16T04:50:59;98334.38;;;8.41;89.10
79671;BME280;69137;50.878;8.050;2023-05-16T04:53:25;98338.50;;;8.43;88.76
79671;BME280;69137;50.878;8.050;2023-05-16T04:55:51;98338.72;;;8.42;88.23
79671;BME280;69137;50.878;8.050;2023-05-16T04:58:16;98346.31;;;8.40;89.64
79671;BME280;69137;50.878;8.050;2023-05-16T05:00:42;98348.72;;;8.36;89.58
79671;BME280;69137;50.878;8.050;2023-05-16T05:03:07;98352.81;;;8.39;88.24
79671;BME280;69137;50.878;8.050;2023-05-16T05:05:33;98350.44;;;8.42;88.58
79671;BME280;69137;50.878;8.050;2023-05-16T05:07:59;98351.59;;;8.29;89.62
79671;BME280;69137;50.878;8.050;2023-05-16T05:10:25;98365.56;;;8.33;88.60
79671;BME280;69137;50.878;8.050;2023-05-16T05:12:52;98371.03;;;8.16;88.60
79671;BME280;69137;50.878;8.050;2023-05-16T05:15:18;98372.28;;;8.08;89.24
79671;BME280;69137;50.878;8.050;2023-05-16T05:17:43;98374.56;;;8.17;88.20
79671;BME280;69137;50.878;8.050;2023-05-16T05:20:09;98375.34;;;8.12;89.33
79671;BME280;69137;50.878;8.050;2023-05-16T05:22:36;98379.53;;;8.20;88.77
79671;BME280;69137;50.878;8.050;2023-05-16T05:25:01;98391.75;;;8.17;87.37
79671;BME280;69137;50.878;8.050;2023-05-16T05:27:27;98386.22;;;8.12;88.93
79671;BME280;69137;50.878;8.050;2023-05-16T05:29:52;98396.31;;;7.95;87.75
79671;BME280;69137;50.878;8.050;2023-05-16T05:32:18;98394.97;;;7.80;86.60
79671;BME280;69137;50.878;8.050;2023-05-16T05:34:43;98399.53;;;7.75;88.14
79671;BME280;69137;50.878;8.050;2023-05-16T05:37:08;98396.72;;;7.70;84.97
79671;BME280;69137;50.878;8.050;2023-05-16T05:39:34;98398.28;;;7.65;86.53
79671;BME280;69137;50.878;8.050;2023-05-16T05:42:00;98400.94;;;7.60;86.05
79671;BME280;69137;50.878;8.050;2023-05-16T05:44:27;98410.81;;;7.66;85.18
79671;BME280;69137;50.878;8.050;2023-05-16T05:46:53;98406.28;;;7.72;86.06
79671;BME280;69137;50.878;8.050;2023-05-16T05:49:19;98406.13;;;7.79;83.87
79671;BME280;69137;50.878;8.050;2023-05-16T05:51:44;98413.84;;;7.70;85.22
79671;BME280;69137;50.878;8.050;2023-05-16T05:54:11;98416.25;;;7.83;85.85
79671;BME280;69137;50.878;8.050;2023-05-16T05:56:37;98424.44;;;7.83;85.84
79671;BME280;69137;50.878;8.050;2023-05-16T05:59:02;98426.28;;;7.83;85.81
79671;BME280;69137;50.878;8.050;2023-05-16T06:01:28;98434.19;;;8.01;87.22
79671;BME280;69137;50.878;8.050;2023-05-16T06:03:54;98431.16;;;7.98;85.89
79671;BME280;69137;50.878;8.050;2023-05-16T06:06:19;98427.13;;;8.00;86.63
79671;BME280;69137;50.878;8.050;2023-05-16T06:08:44;98443.38;;;7.95;86.58
79671;BME280;69137;50.878;8.050;2023-05-16T06:11:10;98444.03;;;8.02;85.46
79671;BME280;69137;50.878;8.050;2023-05-16T06:13:35;98447.59;;;7.86;86.59
79671;BME280;69137;50.878;8.050;2023-05-16T06:16:01;98441.78;;;7.82;85.88
79671;BME280;69137;50.878;8.050;2023-05-16T06:18:26;98456.47;;;7.81;87.41
79671;BME280;69137;50.878;8.050;2023-05-16T06:20:52;98452.25;;;7.91;87.58
79671;BME280;69137;50.878;8.050;2023-05-16T06:23:17;98460.03;;;7.82;85.46
79671;BME280;69137;50.878;8.050;2023-05-16T06:25:42;98455.41;;;7.82;85.93
79671;BME280;69137;50.878;8.050;2023-05-16T06:28:08;98457.72;;;7.91;88.27
79671;BME280;69137;50.878;8.050;2023-05-16T06:30:33;98466.38;;;7.87;85.80
79671;BME280;69137;50.878;8.050;2023-05-16T06:32:59;98469.25;;;7.98;84.98
79671;BME280;69137;50.878;8.050;2023-05-16T06:35:24;98460.34;;;7.85;84.25
79671;BME280;69137;50.878;8.050;2023-05-16T06:37:50;98477.88;;;7.78;83.13
79671;BME280;69137;50.878;8.050;2023-05-16T06:40:15;98485.22;;;7.60;84.14
79671;BME280;69137;50.878;8.050;2023-05-16T06:42:43;98481.00;;;7.53;82.32
79671;BME280;69137;50.878;8.050;2023-05-16T06:45:09;98486.19;;;7.54;82.56
79671;BME280;69137;50.878;8.050;2023-05-16T06:47:35;98487.00;;;7.55;84.04
79671;BME280;69137;50.878;8.050;2023-05-16T06:50:01;98488.81;;;7.49;84.59
79671;BME280;69137;50.878;8.050;2023-05-16T06:52:26;98492.44;;;7.55;84.27
79671;BME280;69137;50.878;8.050;2023-05-16T06:54:52;98499.44;;;7.51;79.93
79671;BME280;69137;50.878;8.050;2023-05-16T06:57:18;98503.22;;;7.50;80.03
79671;BME280;69137;50.878;8.050;2023-05-16T06:59:43;98504.59;;;7.35;79.94
79671;BME280;69137;50.878;8.050;2023-05-16T07:02:08;98507.75;;;7.44;81.77
79671;BME280;69137;50.878;8.050;2023-05-16T07:04:34;98507.00;;;7.49;80.60
79671;BME280;69137;50.878;8.050;2023-05-16T07:07:02;98516.22;;;7.76;82.11
79671;BME280;69137;50.878;8.050;2023-05-16T07:09:28;98525.66;;;8.02;81.84
79671;BME280;69137;50.878;8.050;2023-05-16T07:11:53;98520.38;;;8.13;79.26
79671;BME280;69137;50.878;8.050;2023-05-16T07:14:18;98529.13;;;8.15;77.53
79671;BME280;69137;50.878;8.050;2023-05-16T07:16:44;98529.22;;;8.20;79.68
79671;BME280;69137;50.878;8.050;2023-05-16T07:19:09;98527.91;;;8.22;78.10
79671;BME280;69137;50.878;8.050;2023-05-16T07:21:35;98531.00;;;8.14;76.58
79671;BME280;69137;50.878;8.050;2023-05-16T07:24:01;98531.03;;;8.31;79.99
79671;BME280;69137;50.878;8.050;2023-05-16T07:26:26;98527.84;;;8.51;77.58
79671;BME280;69137;50.878;8.050;2023-05-16T07:28:51;98538.97;;;8.88;79.34
79671;BME280;69137;50.878;8.050;2023-05-16T07:31:17;98545.84;;;8.74;71.54
79671;BME280;69137;50.878;8.050;2023-05-16T07:33:43;98534.94;;;8.74;71.25
79671;BME280;69137;50.878;8.050;2023-05-16T07:36:11;98536.56;;;8.92;76.37
79671;BME280;69137;50.878;8.050;2023-05-16T07:38:36;98540.59;;;8.67;69.04
79671;BME280;69137;50.878;8.050;2023-05-16T07:41:02;98537.50;;;8.81;74.60
79671;BME280;69137;50.878;8.050;2023-05-16T07:43:27;98537.66;;;9.13;73.33
79671;BME280;69137;50.878;8.050;2023-05-16T07:45:53;98541.22;;;9.35;71.35
79671;BME280;69137;50.878;8.050;2023-05-16T07:48:18;98538.00;;;9.16;73.20
79671;BME280;69137;50.878;8.050;2023-05-16T07:50:44;98547.69;;;9.29;69.77
79671;BME280;69137;50.878;8.050;2023-05-16T07:53:09;98549.66;;;9.34;68.86
79671;BME280;69137;50.878;8.050;2023-05-16T07:55:35;98554.22;;;9.50;72.66
79671;BME280;69137;50.878;8.050;2023-05-16T07:58:01;98557.16;;;9.71;69.26
79671;BME280;69137;50.878;8.050;2023-05-16T08:00:27;98555.34;;;9.32;64.10
79671;BME280;69137;50.878;8.050;2023-05-16T08:02:53;98551.16;;;9.25;63.49
79671;BME280;69137;50.878;8.050;2023-05-16T08:05:18;98563.59;;;9.15;63.51
79671;BME280;69137;50.878;8.050;2023-05-16T08:07:44;98563.72;;;9.04;66.49
79671;BME280;69137;50.878;8.050;2023-05-16T08:10:09;98556.31;;;9.43;70.78
79671;BME280;69137;50.878;8.050;2023-05-16T08:12:35;98562.25;;;9.62;65.09
79671;BME280;69137;50.878;8.050;2023-05-16T08:15:01;98559.50;;;9.62;68.27
79671;BME280;69137;50.878;8.050;2023-05-16T08:17:27;98555.44;;;9.65;67.54
79671;BME280;69137;50.878;8.050;2023-05-16T08:19:52;98559.69;;;9.77;65.85
79671;BME280;69137;50.878;8.050;2023-05-16T08:22:18;98556.59;;;9.96;66.22
79671;BME280;69137;50.878;8.050;2023-05-16T08:24:43;98567.88;;;10.04;68.43
79671;BME280;69137;50.878;8.050;2023-05-16T08:27:09;98571.91;;;9.97;63.29
79671;BME280;69137;50.878;8.050;2023-05-16T08:29:35;98560.25;;;9.52;63.20
79671;BME280;69137;50.878;8.050;2023-05-16T08:32:01;98563.84;;;9.58;65.38
79671;BME280;69137;50.878;8.050;2023-05-16T08:34:26;98563.63;;;9.65;65.42
79671;BME280;69137;50.878;8.050;2023-05-16T08:36:52;98563.50;;;9.76;65.33
79671;BME280;69137;50.878;8.050;2023-05-16T08:39:18;98570.41;;;9.84;66.79
79671;BME280;69137;50.878;8.050;2023-05-16T08:41:44;98566.38;;;9.92;59.72
79671;BME280;69137;50.878;8.050;2023-05-16T08:44:09;98565.66;;;10.01;63.81
79671;BME280;69137;50.878;8.050;2023-05-16T08:46:39;98565.41;;;9.76;58.57
79671;BME280;69137;50.878;8.050;2023-05-16T08:49:06;98567.94;;;10.10;60.49
79671;BME280;69137;50.878;8.050;2023-05-16T08:51:32;98567.84;;;9.99;59.37
79671;BME280;69137;50.878;8.050;2023-05-16T08:54:03;98573.94;;;10.12;62.15
79671;BME280;69137;50.878;8.050;2023-05-16T08:56:33;98571.41;;;10.32;63.48
79671;BME280;69137;50.878;8.050;2023-05-16T08:58:58;98562.25;;;10.43;57.78
79671;BME280;69137;50.878;8.050;2023-05-16T09:01:24;98567.97;;;10.79;56.66
79671;BME280;69137;50.878;8.050;2023-05-16T09:03:50;98574.81;;;10.87;56.14
79671;BME280;69137;50.878;8.050;2023-05-16T09:06:16;98567.25;;;10.99;56.92
79671;BME280;69137;50.878;8.050;2023-05-16T09:08:42;98571.72;;;11.10;57.89
79671;BME280;69137;50.878;8.050;2023-05-16T09:11:08;98554.34;;;11.42;54.03
79671;BME280;69137;50.878;8.050;2023-05-16T09:13:33;98573.09;;;11.81;56.30
79671;BME280;69137;50.878;8.050;2023-05-16T09:16:13;98567.25;;;11.47;50.14
79671;BME280;69137;50.878;8.050;2023-05-16T09:18:41;98553.94;;;11.08;54.76
79671;BME280;69137;50.878;8.050;2023-05-16T09:21:08;98566.56;;;11.19;54.12
79671;BME280;69137;50.878;8.050;2023-05-16T09:23:34;98574.81;;;11.29;54.05
79671;BME280;69137;50.878;8.050;2023-05-16T09:26:01;98573.63;;;11.15;52.38
79671;BME280;69137;50.878;8.050;2023-05-16T09:28:27;98575.28;;;11.16;58.00
79671;BME280;69137;50.878;8.050;2023-05-16T09:30:53;98575.28;;;11.16;52.27
79671;BME280;69137;50.878;8.050;2023-05-16T09:33:22;98569.13;;;10.88;55.22
79671;BME280;69137;50.878;8.050;2023-05-16T09:35:58;98575.16;;;10.90;57.56
79671;BME280;69137;50.878;8.050;2023-05-16T09:38:26;98576.50;;;11.41;60.42
79671;BME280;69137;50.878;8.050;2023-05-16T09:40:55;98580.91;;;11.42;53.38
79671;BME280;69137;50.878;8.050;2023-05-16T09:43:24;98569.28;;;11.19;53.54
79671;BME280;69137;50.878;8.050;2023-05-16T09:45:51;98568.75;;;11.22;53.87
79671;BME280;69137;50.878;8.050;2023-05-16T09:48:17;98573.81;;;11.51;53.74
79671;BME280;69137;50.878;8.050;2023-05-16T09:50:50;98577.19;;;11.73;56.25
79671;BME280;69137;50.878;8.050;2023-05-16T09:53:17;98579.53;;;11.44;52.87
79671;BME280;69137;50.878;8.050;2023-05-16T09:55:43;98574.59;;;11.46;50.99
79671;BME280;69137;50.878;8.050;2023-05-16T09:58:08;98573.53;;;11.52;54.69
79671;BME280;69137;50.878;8.050;2023-05-16T10:00:34;98583.47;;;11.79;53.67
79671;BME280;69137;50.878;8.050;2023-05-16T10:03:01;98585.41;;;11.78;52.37
79671;BME280;69137;50.878;8.050;2023-05-16T10:05:30;98571.91;;;11.62;52.71
79671;BME280;69137;50.878;8.050;2023-05-16T10:07:59;98569.94;;;11.42;52.40
79671;BME280;69137;50.878;8.050;2023-05-16T10:10:26;98569.63;;;11.33;55.48
79671;BME280;69137;50.878;8.050;2023-05-16T10:12:55;98568.22;;;11.25;52.12
79671;BME280;69137;50.878;8.050;2023-05-16T10:15:23;98564.19;;;11.43;51.65
79671;BME280;69137;50.878;8.050;2023-05-16T10:17:50;98584.66;;;12.03;50.34
79671;BME280;69137;50.878;8.050;2023-05-16T10:20:17;98566.59;;;11.97;50.22
79671;BME280;69137;50.878;8.050;2023-05-16T10:22:45;98559.47;;;11.96;49.24
79671;BME280;69137;50.878;8.050;2023-05-16T10:25:21;98555.66;;;12.33;49.50
79671;BME280;69137;50.878;8.050;2023-05-16T10:27:49;98566.88;;;12.27;48.11
79671;BME280;69137;50.878;8.050;2023-05-16T10:30:15;98574.53;;;11.94;45.77
79671;BME280;69137;50.878;8.050;2023-05-16T10:32:42;98583.47;;;11.74;46.99
79671;BME280;69137;50.878;8.050;2023-05-16T10:35:08;98579.28;;;11.56;45.30
79671;BME280;69137;50.878;8.050;2023-05-16T10:37:34;98579.34;;;11.71;45.18
79671;BME280;69137;50.878;8.050;2023-05-16T10:40:01;98574.78;;;11.87;47.90
79671;BME280;69137;50.878;8.050;2023-05-16T10:42:31;98578.41;;;12.39;48.19
79671;BME280;69137;50.878;8.050;2023-05-16T10:45:17;98585.00;;;12.48;49.29
79671;BME280;69137;50.878;8.050;2023-05-16T10:50:45;98574.28;;;12.93;47.27
79671;BME280;69137;50.878;8.050;2023-05-16T10:53:31;98570.38;;;13.14;44.43
79671;BME280;69137;50.878;8.050;2023-05-16T11:12:01;98567.69;;;12.73;42.92
79671;BME280;69137;50.878;8.050;2023-05-16T11:17:12;98573.47;;;12.77;44.56
79671;BME280;69137;50.878;8.050;2023-05-16T11:25:07;98577.59;;;12.74;46.15
79671;BME280;69137;50.878;8.050;2023-05-16T11:27:43;98575.34;;;12.92;49.23
79671;BME280;69137;50.878;8.050;2023-05-16T11:32:39;98572.28;;;13.19;46.45
79671;BME280;69137;50.878;8.050;2023-05-16T11:35:07;98571.44;;;13.33;44.96
79671;BME280;69137;50.878;8.050;2023-05-16T11:37:33;98575.28;;;13.27;49.14
79671;BME280;69137;50.878;8.050;2023-05-16T11:40:01;98578.59;;;13.14;45.46
79671;BME280;69137;50.878;8.050;2023-05-16T11:42:40;98576.72;;;12.89;42.54
79671;BME280;69137;50.878;8.050;2023-05-16T11:45:07;98573.94;;;13.09;42.80
79671;BME280;69137;50.878;8.050;2023-05-16T11:47:35;98573.56;;;13.57;41.34
79671;BME280;69137;50.878;8.050;2023-05-16T11:50:05;98576.50;;;13.71;44.52
79671;BME280;69137;50.878;8.050;2023-05-16T11:52:31;98583.75;;;13.46;38.20
79671;BME280;69137;50.878;8.050;2023-05-16T11:54:57;98575.00;;;13.24;40.62
79671;BME280;69137;50.878;8.050;2023-05-16T11:57:26;98576.22;;;12.66;39.98
79671;BME280;69137;50.878;8.050;2023-05-16T11:59:52;98569.09;;;12.55;43.58
79671;BME280;69137;50.878;8.050;2023-05-16T12:02:17;98578.38;;;12.95;42.60
79671;BME280;69137;50.878;8.050;2023-05-16T12:04:45;98583.28;;;13.08;40.28
79671;BME280;69137;50.878;8.050;2023-05-16T12:07:11;98574.47;;;13.22;45.10
79671;BME280;69137;50.878;8.050;2023-05-16T12:09:37;98578.81;;;13.38;40.15
79671;BME280;69137;50.878;8.050;2023-05-16T12:12:04;98572.09;;;13.75;38.47
79671;BME280;69137;50.878;8.050;2023-05-16T12:14:30;98573.19;;;13.74;37.34
79671;BME280;69137;50.878;8.050;2023-05-16T12:16:56;98573.22;;;13.69;40.46
79671;BME280;69137;50.878;8.050;2023-05-16T12:19:22;98586.63;;;13.81;40.66
79671;BME280;69137;50.878;8.050;2023-05-16T12:21:53;98586.38;;;13.67;39.58
79671;BME280;69137;50.878;8.050;2023-05-16T12:24:18;98583.56;;;13.82;41.45
79671;BME280;69137;50.878;8.050;2023-05-16T12:26:45;98578.09;;;13.82;39.68
79671;BME280;69137;50.878;8.050;2023-05-16T12:29:10;98575.41;;;14.22;43.39
79671;BME280;69137;50.878;8.050;2023-05-16T12:31:38;98582.53;;;14.23;39.47
79671;BME280;69137;50.878;8.050;2023-05-16T12:34:04;98573.41;;;14.67;37.94
79671;BME280;69137;50.878;8.050;2023-05-16T12:36:38;98582.16;;;14.74;37.47
79671;BME280;69137;50.878;8.050;2023-05-16T12:39:04;98577.59;;;14.59;37.06
79671;BME280;69137;50.878;8.050;2023-05-16T12:41:30;98581.13;;;14.25;37.98
79671;BME280;69137;50.878;8.050;2023-05-16T12:44:12;98581.91;;;13.86;38.84
79671;BME280;69137;50.878;8.050;2023-05-16T12:46:43;98583.78;;;13.96;40.40
79671;BME280;69137;50.878;8.050;2023-05-16T12:49:09;98580.03;;;13.76;39.08
79671;BME280;69137;50.878;8.050;2023-05-16T12:51:35;98577.38;;;13.61;39.53
79671;BME280;69137;50.878;8.050;2023-05-16T12:54:10;98574.72;;;13.30;39.05
79671;BME280;69137;50.878;8.050;2023-05-16T12:56:39;98570.13;;;13.10;41.18
79671;BME280;69137;50.878;8.050;2023-05-16T12:59:05;98585.47;;;13.11;41.30
79671;BME280;69137;50.878;8.050;2023-05-16T13:01:31;98583.84;;;13.05;41.89
79671;BME280;69137;50.878;8.050;2023-05-16T13:03:57;98581.41;;;12.53;39.12
79671;BME280;69137;50.878;8.050;2023-05-16T13:06:23;98586.63;;;12.70;41.41
79671;BME280;69137;50.878;8.050;2023-05-16T13:08:49;98581.66;;;12.97;40.69
79671;BME280;69137;50.878;8.050;2023-05-16T13:11:14;98582.16;;;13.15;41.57
79671;BME280;69137;50.878;8.050;2023-05-16T13:13:39;98575.31;;;13.12;38.60
79671;BME280;69137;50.878;8.050;2023-05-16T13:16:05;98573.34;;;13.33;40.42
79671;BME280;69137;50.878;8.050;2023-05-16T13:18:31;98571.59;;;13.68;40.77
79671;BME280;69137;50.878;8.050;2023-05-16T13:20:56;98569.41;;;13.65;41.01
79671;BME280;69137;50.878;8.050;2023-05-16T13:23:21;98570.56;;;13.48;44.30
79671;BME280;69137;50.878;8.050;2023-05-16T13:25:47;98581.19;;;13.70;41.06
79671;BME280;69137;50.878;8.050;2023-05-16T13:28:12;98576.13;;;13.88;42.17
79671;BME280;69137;50.878;8.050;2023-05-16T13:30:38;98581.69;;;13.77;37.99
79671;BME280;69137;50.878;8.050;2023-05-16T13:33:03;98579.16;;;13.86;40.11
79671;BME280;69137;50.878;8.050;2023-05-16T13:35:29;98579.50;;;13.74;38.11
79671;BME280;69137;50.878;8.050;2023-05-16T13:37:54;98583.16;;;13.60;40.20
79671;BME280;69137;50.878;8.050;2023-05-16T13:40:20;98583.19;;;13.49;41.36
79671;BME280;69137;50.878;8.050;2023-05-16T13:42:45;98584.09;;;13.14;39.12
79671;BME280;69137;50.878;8.050;2023-05-16T13:45:11;98593.69;;;13.06;38.40